sensor_id;sensor_type;location;lat;lon;timestamp;pressure;altitude;pressure_sealevel;temperature;humidity
71601;BME280;59446;52.192;4.628;2023-02-28T00:00:30;103277.78;;;16.72;48.12
71601;BME280;59446;52.192;4.628;2023-02-28T00:02:55;103275.19;;;16.69;48.03
71601;BME280;59446;52.192;4.628;2023-02-28T00:05:22;103284.91;;;16.65;47.81
71601;BME280;59446;52.192;4.628;2023-02-28T00:07:50;103283.97;;;16.68;47.80
71601;BME280;59446;52.192;4.628;2023-02-28T00:10:25;103284.91;;;16.65;48.23
71601;BME280;59446;52.192;4.628;2023-02-28T00:12:53;103278.78;;;16.65;48.54
71601;BME280;59446;52.192;4.628;2023-02-28T00:15:19;103282.28;;;16.64;48.39
71601;BME280;59446;52.192;4.628;2023-02-28T00:17:45;103282.31;;;16.62;48.36
71601;BME280;59446;52.192;4.628;2023-02-28T00:20:12;103280.56;;;16.61;48.37
71601;BME280;59446;52.192;4.628;2023-02-28T00:22:41;103276.22;;;16.59;48.57
71601;BME280;59446;52.192;4.628;2023-02-28T00:25:08;103277.97;;;16.58;48.03
71601;BME280;59446;52.192;4.628;2023-02-28T00:27:36;103280.63;;;16.57;48.23
71601;BME280;59446;52.192;4.628;2023-02-28T00:30:03;103274.50;;;16.56;48.09
71601;BME280;59446;52.192;4.628;2023-02-28T00:32:29;103284.13;;;16.54;48.08
71601;BME280;59446;52.192;4.628;2023-02-28T00:34:55;103274.53;;;16.52;48.58
71601;BME280;59446;52.192;4.628;2023-02-28T00:37:20;103278.88;;;16.56;48.53
71601;BME280;59446;52.192;4.628;2023-02-28T00:39:46;103275.34;;;16.55;48.81
71601;BME280;59446;52.192;4.628;2023-02-28T00:42:11;103273.66;;;16.51;48.20
71601;BME280;59446;52.192;4.628;2023-02-28T00:44:37;103272.81;;;16.49;48.50
71601;BME280;59446;52.192;4.628;2023-02-28T00:47:02;103271.91;;;16.52;48.54
71601;BME280;59446;52.192;4.628;2023-02-28T00:49:27;103279.81;;;16.50;48.96
71601;BME280;59446;52.192;4.628;2023-02-28T00:51:54;103271.09;;;16.47;48.88
71601;BME280;59446;52.192;4.628;2023-02-28T00:54:20;103267.59;;;16.48;48.62
71601;BME280;59446;52.192;4.628;2023-02-28T00:56:46;103266.72;;;16.47;48.87
71601;BME280;59446;52.192;4.628;2023-02-28T00:59:13;103279.03;;;16.45;48.65
71601;BME280;59446;52.192;4.628;2023-02-28T01:01:38;103272.00;;;16.46;48.99
71601;BME280;59446;52.192;4.628;2023-02-28T01:04:04;103272.88;;;16.46;49.08
71601;BME280;59446;52.192;4.628;2023-02-28T01:06:30;103271.13;;;16.45;48.99
71601;BME280;59446;52.192;4.628;2023-02-28T01:08:55;103272.03;;;16.43;48.96
71601;BME280;59446;52.192;4.628;2023-02-28T01:11:21;103275.63;;;16.39;48.50
71601;BME280;59446;52.192;4.628;2023-02-28T01:13:46;103270.31;;;16.42;48.99
71601;BME280;59446;52.192;4.628;2023-02-28T01:16:12;103276.47;;;16.39;48.73
71601;BME280;59446;52.192;4.628;2023-02-28T01:18:38;103270.34;;;16.40;48.92
71601;BME280;59446;52.192;4.628;2023-02-28T01:21:13;103272.13;;;16.38;48.96
71601;BME280;59446;52.192;4.628;2023-02-28T01:23:40;103269.47;;;16.38;49.05
71601;BME280;59446;52.192;4.628;2023-02-28T01:26:07;103273.06;;;16.34;49.31
71601;BME280;59446;52.192;4.628;2023-02-28T01:28:33;103267.78;;;16.32;49.39
71601;BME280;59446;52.192;4.628;2023-02-28T01:30:58;103267.78;;;16.34;48.83
71601;BME280;59446;52.192;4.628;2023-02-28T01:33:24;103262.50;;;16.37;48.87
71601;BME280;59446;52.192;4.628;2023-02-28T01:35:49;103259.06;;;16.30;48.68
71601;BME280;59446;52.192;4.628;2023-02-28T01:38:15;103268.66;;;16.33;48.85
71601;BME280;59446;52.192;4.628;2023-02-28T01:40:40;103264.31;;;16.30;49.19
71601;BME280;59446;52.192;4.628;2023-02-28T01:43:52;103272.22;;;16.29;49.28
71601;BME280;59446;52.192;4.628;2023-02-28T01:46:17;103259.97;;;16.28;48.84
71601;BME280;59446;52.192;4.628;2023-02-28T01:51:14;103253.84;;;16.26;49.32
71601;BME280;59446;52.192;4.628;2023-02-28T01:53:53;103253.91;;;16.23;48.90
71601;BME280;59446;52.192;4.628;2023-02-28T01:56:24;103249.47;;;16.26;48.98
71601;BME280;59446;52.192;4.628;2023-02-28T01:58:52;103246.88;;;16.25;48.99
71601;BME280;59446;52.192;4.628;2023-02-28T02:01:20;103250.41;;;16.22;49.40
71601;BME280;59446;52.192;4.628;2023-02-28T02:03:57;103246.03;;;16.23;49.69
71601;BME280;59446;52.192;4.628;2023-02-28T02:06:34;103252.16;;;16.22;49.61
71601;BME280;59446;52.192;4.628;2023-02-28T02:09:00;103259.16;;;16.23;49.85
71601;BME280;59446;52.192;4.628;2023-02-28T02:11:26;103248.66;;;16.21;49.53
71601;BME280;59446;52.192;4.628;2023-02-28T02:16:52;103250.44;;;16.19;49.23
71601;BME280;59446;52.192;4.628;2023-02-28T02:25:42;103234.75;;;16.15;49.85
71601;BME280;59446;52.192;4.628;2023-02-28T02:36:42;103227.72;;;16.15;49.04
71601;BME280;59446;52.192;4.628;2023-02-28T02:39:44;103226.00;;;16.13;49.36
71601;BME280;59446;52.192;4.628;2023-02-28T02:42:55;103222.53;;;16.12;49.76
71601;BME280;59446;52.192;4.628;2023-02-28T02:45:26;103227.78;;;16.11;49.11
71601;BME280;59446;52.192;4.628;2023-02-28T02:47:56;103225.16;;;16.11;49.90
71601;BME280;59446;52.192;4.628;2023-02-28T02:50:29;103225.16;;;16.09;49.71
71601;BME280;59446;52.192;4.628;2023-02-28T02:52:58;103231.31;;;16.06;49.73
71601;BME280;59446;52.192;4.628;2023-02-28T02:55:25;103220.81;;;16.06;49.71
71601;BME280;59446;52.192;4.628;2023-02-28T02:58:01;103223.50;;;16.03;49.41
71601;BME280;59446;52.192;4.628;2023-02-28T03:00:35;103222.56;;;16.06;49.70
71601;BME280;59446;52.192;4.628;2023-02-28T03:03:02;103227.00;;;16.04;49.70
71601;BME280;59446;52.192;4.628;2023-02-28T03:05:47;103234.88;;;16.02;50.05
71601;BME280;59446;52.192;4.628;2023-02-28T03:08:13;103236.69;;;16.00;49.48
71601;BME280;59446;52.192;4.628;2023-02-28T03:10:42;103238.41;;;16.01;49.58
71601;BME280;59446;52.192;4.628;2023-02-28T03:13:32;103238.38;;;16.03;50.01
71601;BME280;59446;52.192;4.628;2023-02-28T03:18:49;103227.91;;;16.01;49.37
71601;BME280;59446;52.192;4.628;2023-02-28T03:21:27;103224.41;;;15.99;49.99
71601;BME280;59446;52.192;4.628;2023-02-28T03:24:02;103231.41;;;16.00;49.90
71601;BME280;59446;52.192;4.628;2023-02-28T03:26:31;103232.34;;;15.96;49.46
71601;BME280;59446;52.192;4.628;2023-02-28T03:29:14;103217.44;;;15.98;49.93
71601;BME280;59446;52.192;4.628;2023-02-28T03:31:50;103214.81;;;15.97;49.96
71601;BME280;59446;52.192;4.628;2023-02-28T03:34:34;103220.94;;;15.99;49.40
71601;BME280;59446;52.192;4.628;2023-02-28T03:37:12;103214.84;;;15.95;49.77
71601;BME280;59446;52.192;4.628;2023-02-28T03:39:44;103218.34;;;15.96;49.91
71601;BME280;59446;52.192;4.628;2023-02-28T03:42:19;103213.13;;;15.93;49.88
71601;BME280;59446;52.192;4.628;2023-02-28T03:44:53;103220.16;;;15.92;49.89
71601;BME280;59446;52.192;4.628;2023-02-28T03:47:32;103215.78;;;15.91;49.69
71601;BME280;59446;52.192;4.628;2023-02-28T03:50:20;103225.41;;;15.92;49.64
71601;BME280;59446;52.192;4.628;2023-02-28T03:52:55;103216.63;;;15.93;49.96
71601;BME280;59446;52.192;4.628;2023-02-28T03:55:28;103217.50;;;15.94;50.10
71601;BME280;59446;52.192;4.628;2023-02-28T03:58:03;103217.56;;;15.89;49.93
71601;BME280;59446;52.192;4.628;2023-02-28T04:00:34;103221.03;;;15.91;50.26
71601;BME280;59446;52.192;4.628;2023-02-28T04:03:02;103214.91;;;15.91;49.54
71601;BME280;59446;52.192;4.628;2023-02-28T04:05:29;103223.66;;;15.91;50.04
71601;BME280;59446;52.192;4.628;2023-02-28T04:08:02;103228.06;;;15.89;49.76
71601;BME280;59446;52.192;4.628;2023-02-28T04:10:28;103214.91;;;15.88;49.73
71601;BME280;59446;52.192;4.628;2023-02-28T04:12:53;103230.69;;;15.88;50.16
71601;BME280;59446;52.192;4.628;2023-02-28T04:15:19;103229.84;;;15.86;49.96
71601;BME280;59446;52.192;4.628;2023-02-28T04:17:47;103228.06;;;15.86;49.82
71601;BME280;59446;52.192;4.628;2023-02-28T04:20:13;103228.97;;;15.85;49.95
71601;BME280;59446;52.192;4.628;2023-02-28T04:22:38;103227.22;;;15.84;49.75
71601;BME280;59446;52.192;4.628;2023-02-28T04:25:04;103234.25;;;15.84;50.05
71601;BME280;59446;52.192;4.628;2023-02-28T04:27:30;103234.22;;;15.85;49.78
71601;BME280;59446;52.192;4.628;2023-02-28T04:29:56;103229.00;;;15.84;50.20
71601;BME280;59446;52.192;4.628;2023-02-28T04:32:21;103229.91;;;15.81;50.04
71601;BME280;59446;52.192;4.628;2023-02-28T04:34:46;103234.28;;;15.81;50.21
71601;BME280;59446;52.192;4.628;2023-02-28T04:37:12;103229.91;;;15.81;50.20
71601;BME280;59446;52.192;4.628;2023-02-28T04:39:37;103230.81;;;15.79;50.06
71601;BME280;59446;52.192;4.628;2023-02-28T04:42:03;103231.66;;;15.81;50.04
71601;BME280;59446;52.192;4.628;2023-02-28T04:44:29;103236.88;;;15.82;49.87
71601;BME280;59446;52.192;4.628;2023-02-28T04:46:54;103234.31;;;15.79;49.90
71601;BME280;59446;52.192;4.628;2023-02-28T04:49:19;103234.31;;;15.79;49.63
71601;BME280;59446;52.192;4.628;2023-02-28T04:51:45;103228.19;;;15.79;49.60
71601;BME280;59446;52.192;4.628;2023-02-28T04:54:10;103227.34;;;15.77;50.34
71601;BME280;59446;52.192;4.628;2023-02-28T04:56:36;103227.34;;;15.77;50.08
71601;BME280;59446;52.192;4.628;2023-02-28T04:59:01;103229.09;;;15.74;50.00
71601;BME280;59446;52.192;4.628;2023-02-28T05:01:29;103230.88;;;15.74;50.43
71601;BME280;59446;52.192;4.628;2023-02-28T05:03:57;103231.72;;;15.76;50.46
71601;BME280;59446;52.192;4.628;2023-02-28T05:06:24;103228.25;;;15.74;50.26
71601;BME280;59446;52.192;4.628;2023-02-28T05:08:50;103223.00;;;15.74;50.00
71601;BME280;59446;52.192;4.628;2023-02-28T05:11:20;103226.53;;;15.71;50.33
71601;BME280;59446;52.192;4.628;2023-02-28T05:13:46;103230.88;;;15.72;50.01
71601;BME280;59446;52.192;4.628;2023-02-28T05:16:12;103229.16;;;15.71;49.86
71601;BME280;59446;52.192;4.628;2023-02-28T05:18:38;103222.13;;;15.72;49.84
71601;BME280;59446;52.192;4.628;2023-02-28T05:21:04;103223.88;;;15.73;50.04
71601;BME280;59446;52.192;4.628;2023-02-28T05:23:30;103225.66;;;15.71;49.78
71601;BME280;59446;52.192;4.628;2023-02-28T05:25:55;103226.53;;;15.70;49.81
71601;BME280;59446;52.192;4.628;2023-02-28T05:28:21;103228.28;;;15.71;49.81
71601;BME280;59446;52.192;4.628;2023-02-28T05:30:47;103235.31;;;15.66;49.90
71601;BME280;59446;52.192;4.628;2023-02-28T05:33:13;103238.81;;;15.68;49.90
71601;BME280;59446;52.192;4.628;2023-02-28T05:35:42;103231.81;;;15.65;49.94
71601;BME280;59446;52.192;4.628;2023-02-28T05:38:10;103236.19;;;15.68;49.91
71601;BME280;59446;52.192;4.628;2023-02-28T05:40:38;103233.56;;;15.63;49.95
71601;BME280;59446;52.192;4.628;2023-02-28T05:43:03;103231.81;;;15.67;50.38
71601;BME280;59446;52.192;4.628;2023-02-28T05:45:28;103236.19;;;15.65;50.16
71601;BME280;59446;52.192;4.628;2023-02-28T05:47:54;103239.69;;;15.64;50.37
71601;BME280;59446;52.192;4.628;2023-02-28T05:50:20;103238.81;;;15.65;50.09
71601;BME280;59446;52.192;4.628;2023-02-28T05:52:50;103234.44;;;15.64;49.92
71601;BME280;59446;52.192;4.628;2023-02-28T05:55:15;103235.31;;;15.66;49.95
71601;BME280;59446;52.192;4.628;2023-02-28T05:57:40;103247.56;;;15.64;50.28
71601;BME280;59446;52.192;4.628;2023-02-28T06:00:06;103247.59;;;15.61;50.52
71601;BME280;59446;52.192;4.628;2023-02-28T06:02:32;103250.19;;;15.64;50.19
71601;BME280;59446;52.192;4.628;2023-02-28T06:04:57;103241.47;;;15.60;49.95
71601;BME280;59446;52.192;4.628;2023-02-28T06:07:22;103240.63;;;15.60;50.07
71601;BME280;59446;52.192;4.628;2023-02-28T06:09:48;103239.75;;;15.59;50.61
71601;BME280;59446;52.192;4.628;2023-02-28T06:12:13;103239.75;;;15.58;50.36
71601;BME280;59446;52.192;4.628;2023-02-28T06:14:38;103238.00;;;15.58;50.45
71601;BME280;59446;52.192;4.628;2023-02-28T06:17:04;103247.59;;;15.61;50.56
71601;BME280;59446;52.192;4.628;2023-02-28T06:19:30;103242.38;;;15.58;50.09
71601;BME280;59446;52.192;4.628;2023-02-28T06:21:56;103245.00;;;15.58;49.88
71601;BME280;59446;52.192;4.628;2023-02-28T06:24:23;103242.38;;;15.58;50.31
71601;BME280;59446;52.192;4.628;2023-02-28T06:26:49;103241.53;;;15.57;50.37
71601;BME280;59446;52.192;4.628;2023-02-28T06:29:15;103239.81;;;15.55;50.00
71601;BME280;59446;52.192;4.628;2023-02-28T06:31:45;103247.69;;;15.55;50.29
71601;BME280;59446;52.192;4.628;2023-02-28T06:34:11;103252.06;;;15.54;50.49
71601;BME280;59446;52.192;4.628;2023-02-28T06:36:41;103253.81;;;15.55;50.39
71601;BME280;59446;52.192;4.628;2023-02-28T06:39:07;103254.72;;;15.53;50.57
71601;BME280;59446;52.192;4.628;2023-02-28T06:41:33;103259.09;;;15.51;50.70
71601;BME280;59446;52.192;4.628;2023-02-28T06:44:04;103260.81;;;15.53;50.26
71601;BME280;59446;52.192;4.628;2023-02-28T06:46:31;103258.22;;;15.52;50.17
71601;BME280;59446;52.192;4.628;2023-02-28T06:48:57;103261.78;;;15.48;50.69
71601;BME280;59446;52.192;4.628;2023-02-28T06:51:22;103263.47;;;15.53;50.00
71601;BME280;59446;52.192;4.628;2023-02-28T06:53:49;103267.00;;;15.49;50.45
71601;BME280;59446;52.192;4.628;2023-02-28T06:56:16;103274.91;;;15.48;50.36
71601;BME280;59446;52.192;4.628;2023-02-28T06:58:41;103273.13;;;15.48;50.47
71601;BME280;59446;52.192;4.628;2023-02-28T07:01:07;103278.38;;;15.50;50.40
71601;BME280;59446;52.192;4.628;2023-02-28T07:03:35;103278.34;;;15.51;50.61
71601;BME280;59446;52.192;4.628;2023-02-28T07:06:00;103290.66;;;15.48;50.25
71601;BME280;59446;52.192;4.628;2023-02-28T07:08:26;103288.88;;;15.50;50.04
71601;BME280;59446;52.192;4.628;2023-02-28T07:10:55;103290.66;;;15.46;50.47
71601;BME280;59446;52.192;4.628;2023-02-28T07:13:21;103290.66;;;15.46;50.58
71601;BME280;59446;52.192;4.628;2023-02-28T07:15:58;103301.22;;;15.43;50.20
71601;BME280;59446;52.192;4.628;2023-02-28T07:18:23;103299.44;;;15.45;50.09
71601;BME280;59446;52.192;4.628;2023-02-28T07:20:49;103298.56;;;15.44;50.33
71601;BME280;59446;52.192;4.628;2023-02-28T07:23:15;103301.16;;;15.48;50.53
71601;BME280;59446;52.192;4.628;2023-02-28T07:25:40;103302.03;;;15.47;50.55
71601;BME280;59446;52.192;4.628;2023-02-28T07:28:05;103302.06;;;15.43;50.07
71601;BME280;59446;52.192;4.628;2023-02-28T07:30:31;103297.69;;;15.42;50.12
71601;BME280;59446;52.192;4.628;2023-02-28T07:32:56;103309.97;;;15.37;49.85
71601;BME280;59446;52.192;4.628;2023-02-28T07:35:22;103303.06;;;15.30;49.28
71601;BME280;59446;52.192;4.628;2023-02-28T07:37:47;103298.69;;;15.28;48.90
71601;BME280;59446;52.192;4.628;2023-02-28T07:40:13;103300.53;;;15.21;48.93
71601;BME280;59446;52.192;4.628;2023-02-28T07:42:40;103311.00;;;15.23;49.15
71601;BME280;59446;52.192;4.628;2023-02-28T07:45:07;103313.66;;;15.21;48.73
71601;BME280;59446;52.192;4.628;2023-02-28T07:47:32;103318.00;;;15.24;48.13
71601;BME280;59446;52.192;4.628;2023-02-28T07:49:58;103315.38;;;15.24;48.07
71601;BME280;59446;52.192;4.628;2023-02-28T07:52:24;103313.56;;;15.29;47.97
71601;BME280;59446;52.192;4.628;2023-02-28T07:54:50;103302.09;;;15.39;48.11
71601;BME280;59446;52.192;4.628;2023-02-28T07:57:15;103306.41;;;15.48;48.13
71601;BME280;59446;52.192;4.628;2023-02-28T07:59:41;103302.81;;;15.56;48.07
71601;BME280;59446;52.192;4.628;2023-02-28T08:02:11;103306.28;;;15.60;47.87
71601;BME280;59446;52.192;4.628;2023-02-28T08:04:37;103300.97;;;15.66;48.29
71601;BME280;59446;52.192;4.628;2023-02-28T08:07:02;103316.63;;;15.80;48.34
71601;BME280;59446;52.192;4.628;2023-02-28T08:09:28;103312.19;;;15.83;48.47
71601;BME280;59446;52.192;4.628;2023-02-28T08:11:55;103307.69;;;15.96;48.33
71601;BME280;59446;52.192;4.628;2023-02-28T08:14:20;103316.22;;;16.15;47.85
71601;BME280;59446;52.192;4.628;2023-02-28T08:16:45;103308.19;;;16.27;48.18
71601;BME280;59446;52.192;4.628;2023-02-28T08:19:10;103316.09;;;16.25;48.07
71601;BME280;59446;52.192;4.628;2023-02-28T08:21:36;103300.28;;;16.28;48.39
71601;BME280;59446;52.192;4.628;2023-02-28T08:24:01;103296.66;;;16.39;47.96
71601;BME280;59446;52.192;4.628;2023-02-28T08:26:27;103315.00;;;16.43;48.23
71601;BME280;59446;52.192;4.628;2023-02-28T08:28:52;103320.09;;;16.57;47.90
71601;BME280;59446;52.192;4.628;2023-02-28T08:31:18;103311.22;;;16.65;47.80
71601;BME280;59446;52.192;4.628;2023-02-28T08:33:44;103301.56;;;16.66;48.21
71601;BME280;59446;52.192;4.628;2023-02-28T08:36:10;103313.81;;;16.67;48.18
71601;BME280;59446;52.192;4.628;2023-02-28T08:38:37;103306.78;;;16.69;47.93
71601;BME280;59446;52.192;4.628;2023-02-28T08:41:05;103304.78;;;16.85;48.40
71601;BME280;59446;52.192;4.628;2023-02-28T08:43:33;103301.91;;;17.00;47.85
71601;BME280;59446;52.192;4.628;2023-02-28T08:45:58;103301.78;;;17.09;47.69
71601;BME280;59446;52.192;4.628;2023-02-28T08:48:28;103288.63;;;17.08;47.93
71601;BME280;59446;52.192;4.628;2023-02-28T08:53:00;103303.34;;;17.19;47.77
71601;BME280;59446;52.192;4.628;2023-02-28T08:55:25;103295.97;;;17.40;47.55
71601;BME280;59446;52.192;4.628;2023-02-28T08:57:51;103272.81;;;17.60;47.22
71601;BME280;59446;52.192;4.628;2023-02-28T09:00:17;103281.28;;;17.77;47.11
71601;BME280;59446;52.192;4.628;2023-02-28T09:02:43;103285.34;;;17.94;46.63
71601;BME280;59446;52.192;4.628;2023-02-28T09:05:08;103286.38;;;18.28;46.00
71601;BME280;59446;52.192;4.628;2023-02-28T09:07:34;103285.47;;;18.29;45.84
71601;BME280;59446;52.192;4.628;2023-02-28T09:09:59;103287.56;;;18.55;45.43
71601;BME280;59446;52.192;4.628;2023-02-28T09:12:26;103282.91;;;18.66;45.12
71601;BME280;59446;52.192;4.628;2023-02-28T09:14:53;103287.28;;;18.67;45.12
71601;BME280;59446;52.192;4.628;2023-02-28T09:17:19;103290.44;;;18.83;45.13
71601;BME280;59446;52.192;4.628;2023-02-28T09:19:44;103288.28;;;18.99;44.91
71601;BME280;59446;52.192;4.628;2023-02-28T09:22:12;103284.03;;;18.93;44.60
71601;BME280;59446;52.192;4.628;2023-02-28T09:24:38;103289.31;;;18.93;44.64
71601;BME280;59446;52.192;4.628;2023-02-28T09:27:04;103290.38;;;18.86;44.76
71601;BME280;59446;52.192;4.628;2023-02-28T09:29:30;103289.22;;;18.96;44.56
71601;BME280;59446;52.192;4.628;2023-02-28T09:31:55;103282.16;;;18.97;44.76
71601;BME280;59446;52.192;4.628;2023-02-28T09:34:24;103288.09;;;18.71;44.90
71601;BME280;59446;52.192;4.628;2023-02-28T09:36:49;103295.53;;;18.52;45.38
71601;BME280;59446;52.192;4.628;2023-02-28T09:39:20;103292.34;;;18.38;45.72
71601;BME280;59446;52.192;4.628;2023-02-28T09:41:49;103294.78;;;18.47;45.57
71601;BME280;59446;52.192;4.628;2023-02-28T09:44:35;103303.50;;;19.25;44.16
71601;BME280;59446;52.192;4.628;2023-02-28T09:47:10;103304.19;;;19.33;43.89
71601;BME280;59446;52.192;4.628;2023-02-28T09:49:41;103304.59;;;19.52;43.20
71601;BME280;59446;52.192;4.628;2023-02-28T09:52:28;103298.34;;;19.54;43.15
71601;BME280;59446;52.192;4.628;2023-02-28T09:54:54;103300.09;;;19.55;43.46
71601;BME280;59446;52.192;4.628;2023-02-28T10:05:59;103286.97;;;19.83;42.85
71601;BME280;59446;52.192;4.628;2023-02-28T10:08:41;103290.53;;;19.82;43.10
71601;BME280;59446;52.192;4.628;2023-02-28T10:11:12;103288.03;;;20.09;43.16
71601;BME280;59446;52.192;4.628;2023-02-28T10:13:59;103296.00;;;20.07;43.36
71601;BME280;59446;52.192;4.628;2023-02-28T10:22:31;103297.25;;;20.25;42.90
71601;BME280;59446;52.192;4.628;2023-02-28T10:25:00;103296.31;;;20.27;42.21
71601;BME280;59446;52.192;4.628;2023-02-28T10:27:32;103294.38;;;20.33;42.75
71601;BME280;59446;52.192;4.628;2023-02-28T10:30:02;103294.19;;;20.39;42.01
71601;BME280;59446;52.192;4.628;2023-02-28T10:32:31;103301.19;;;20.41;41.95
71601;BME280;59446;52.192;4.628;2023-02-28T10:35:15;103299.66;;;20.33;41.93
71601;BME280;59446;52.192;4.628;2023-02-28T10:37:43;103302.25;;;20.34;42.17
71601;BME280;59446;52.192;4.628;2023-02-28T10:40:25;103305.28;;;20.51;41.55
71601;BME280;59446;52.192;4.628;2023-02-28T10:43:05;103303.59;;;20.49;41.69
71601;BME280;59446;52.192;4.628;2023-02-28T10:45:33;103306.19;;;20.50;42.11
71601;BME280;59446;52.192;4.628;2023-02-28T10:48:10;103304.31;;;20.54;41.46
71601;BME280;59446;52.192;4.628;2023-02-28T10:50:52;103289.38;;;20.51;41.77
71601;BME280;59446;52.192;4.628;2023-02-28T11:01:40;103292.28;;;20.72;41.12
71601;BME280;59446;52.192;4.628;2023-02-28T11:04:36;103290.81;;;20.61;41.46
71601;BME280;59446;52.192;4.628;2023-02-28T11:07:27;103290.78;;;20.63;41.50
71601;BME280;59446;52.192;4.628;2023-02-28T11:09:55;103278.22;;;20.42;41.82
71601;BME280;59446;52.192;4.628;2023-02-28T11:12:30;103272.78;;;20.18;42.16
71601;BME280;59446;52.192;4.628;2023-02-28T11:15:02;103268.06;;;19.97;43.30
71601;BME280;59446;52.192;4.628;2023-02-28T11:17:31;103269.81;;;19.98;42.85
71601;BME280;59446;52.192;4.628;2023-02-28T11:20:03;103271.00;;;19.86;43.37
71601;BME280;59446;52.192;4.628;2023-02-28T11:22:36;103265.88;;;19.82;43.32
71601;BME280;59446;52.192;4.628;2023-02-28T11:25:08;103255.28;;;19.82;43.73
71601;BME280;59446;52.192;4.628;2023-02-28T11:28:25;103265.06;;;20.39;42.53
71601;BME280;59446;52.192;4.628;2023-02-28T11:31:05;103270.34;;;20.68;41.59
71601;BME280;59446;52.192;4.628;2023-02-28T11:33:49;103268.66;;;20.94;41.63
71601;BME280;59446;52.192;4.628;2023-02-28T11:36:31;103266.38;;;20.81;41.97
71601;BME280;59446;52.192;4.628;2023-02-28T11:39:04;103271.81;;;20.77;41.90
71601;BME280;59446;52.192;4.628;2023-02-28T11:44:31;103260.22;;;20.53;42.41
71601;BME280;59446;52.192;4.628;2023-02-28T11:50:36;103267.28;;;20.24;43.04
71601;BME280;59446;52.192;4.628;2023-02-28T11:56:23;103254.31;;;19.84;43.53
71601;BME280;59446;52.192;4.628;2023-02-28T11:59:22;103245.47;;;19.85;43.89
71601;BME280;59446;52.192;4.628;2023-02-28T12:02:08;103245.34;;;19.90;43.45
71601;BME280;59446;52.192;4.628;2023-02-28T12:05:10;103240.78;;;19.95;43.82
71601;BME280;59446;52.192;4.628;2023-02-28T12:10:26;103239.19;;;19.89;43.28
71601;BME280;59446;52.192;4.628;2023-02-28T12:13:29;103227.78;;;19.87;43.74
71601;BME280;59446;52.192;4.628;2023-02-28T12:16:29;103232.13;;;19.90;43.57
71601;BME280;59446;52.192;4.628;2023-02-28T12:21:48;103225.56;;;20.03;43.55
71601;BME280;59446;52.192;4.628;2023-02-28T12:27:12;103223.03;;;20.00;43.86
71601;BME280;59446;52.192;4.628;2023-02-28T12:29:52;103230.25;;;19.93;43.98
71601;BME280;59446;52.192;4.628;2023-02-28T12:32:35;103227.59;;;19.93;43.89
71601;BME280;59446;52.192;4.628;2023-02-28T12:37:42;103222.41;;;19.90;44.32
71601;BME280;59446;52.192;4.628;2023-02-28T12:40:22;103224.91;;;19.95;44.10
71601;BME280;59446;52.192;4.628;2023-02-28T12:43:03;103223.56;;;19.82;44.88
71601;BME280;59446;52.192;4.628;2023-02-28T12:46:02;103218.19;;;19.85;44.41
71601;BME280;59446;52.192;4.628;2023-02-28T12:48:40;103220.69;;;19.89;45.03
71601;BME280;59446;52.192;4.628;2023-02-28T12:51:08;103216.44;;;19.84;45.70
71601;BME280;59446;52.192;4.628;2023-02-28T12:59:32;103207.66;;;19.83;45.09
71601;BME280;59446;52.192;4.628;2023-02-28T13:05:14;103214.81;;;19.80;45.51
71601;BME280;59446;52.192;4.628;2023-02-28T13:10:50;103204.84;;;19.88;45.39
71601;BME280;59446;52.192;4.628;2023-02-28T13:13:27;103193.09;;;19.98;44.80
71601;BME280;59446;52.192;4.628;2023-02-28T13:16:07;103191.03;;;20.09;44.47
71601;BME280;59446;52.192;4.628;2023-02-28T13:18:43;103189.56;;;19.99;45.07
71601;BME280;59446;52.192;4.628;2023-02-28T13:21:26;103192.84;;;20.07;44.87
71601;BME280;59446;52.192;4.628;2023-02-28T13:34:32;103174.44;;;20.04;45.10
71601;BME280;59446;52.192;4.628;2023-02-28T13:39:52;103168.50;;;19.96;45.31
71601;BME280;59446;52.192;4.628;2023-02-28T13:42:33;103176.38;;;19.97;45.14
71601;BME280;59446;52.192;4.628;2023-02-28T13:47:30;103169.38;;;19.95;45.40
71601;BME280;59446;52.192;4.628;2023-02-28T14:07:18;103154.34;;;19.97;45.61
71601;BME280;59446;52.192;4.628;2023-02-28T14:09:51;103149.81;;;20.00;45.35
71601;BME280;59446;52.192;4.628;2023-02-28T14:15:41;103146.31;;;20.00;45.82
71601;BME280;59446;52.192;4.628;2023-02-28T14:18:28;103141.94;;;19.99;45.34
71601;BME280;59446;52.192;4.628;2023-02-28T14:21:10;103147.22;;;19.99;45.24
71601;BME280;59446;52.192;4.628;2023-02-28T14:24:25;103137.47;;;20.01;45.21
71601;BME280;59446;52.192;4.628;2023-02-28T14:27:08;103140.91;;;20.05;45.28
71601;BME280;59446;52.192;4.628;2023-02-28T14:29:42;103137.31;;;20.07;44.79
71601;BME280;59446;52.192;4.628;2023-02-28T14:32:33;103139.13;;;20.05;45.26
71601;BME280;59446;52.192;4.628;2023-02-28T14:37:28;103127.69;;;20.05;45.38
71601;BME280;59446;52.192;4.628;2023-02-28T14:39:55;103121.47;;;20.06;45.54
71601;BME280;59446;52.192;4.628;2023-02-28T14:42:29;103136.50;;;20.04;45.54
71601;BME280;59446;52.192;4.628;2023-02-28T14:44:55;103129.63;;;19.98;45.89
71601;BME280;59446;52.192;4.628;2023-02-28T14:47:23;103128.22;;;19.86;45.96
71601;BME280;59446;52.192;4.628;2023-02-28T14:49:50;103133.91;;;19.73;46.30
71601;BME280;59446;52.192;4.628;2023-02-28T14:52:30;103128.69;;;19.71;46.53
71601;BME280;59446;52.192;4.628;2023-02-28T14:55:00;103132.94;;;19.77;46.55
71601;BME280;59446;52.192;4.628;2023-02-28T14:57:29;103134.06;;;19.68;47.02
71601;BME280;59446;52.192;4.628;2023-02-28T15:02:33;103131.59;;;19.62;47.33
71601;BME280;59446;52.192;4.628;2023-02-28T15:05:16;103133.34;;;19.63;47.57
71601;BME280;59446;52.192;4.628;2023-02-28T15:07:45;103127.00;;;19.68;47.14
71601;BME280;59446;52.192;4.628;2023-02-28T15:10:23;103132.34;;;19.67;47.03